Oshkosh, WI (54901)

1:15 AM CDT on September 03, 2015 (GMT -0500)
Scott54902Wx | | Change Station
CLOSE
Current Station
Personal Weather Station
Location: Oshkosh, WI
Elevation: 761 ft
Nearby Weather Stations

Elev 761 ft 44.01 °N, 88.57 °W | Updated 2 minutes ago

Partly Cloudy
Partly Cloudy
73.6 °F
Feels Like 73 °F
N
2.2
Wind Variable Wind from WSW

Today
High -- | Low -- °F
--% Chance of Precip.
Yesterday
High -- | Low -- °F
Precip. -- in
6:19 AM 7:26 PM
Waning Gibbous, 73% visible
Pressure 29.85 in
Visibility 7.0 miles
Clouds Few 5000 ft
Heat Index 73 °F
Dew Point 69 °F
Humidity 85%
Rainfall 0.00 in
Snow Depth Not available.
UV 0 out of 12
Pollen 9.60 out of 12
Air Quality Not available.
Flu Activity Not available.
METAR KOSH 030553Z 20007KT 7SM FEW050 22/20 A2990 RMK AO2 SLP108 T02220200 10256 20222 403060217 58011
Pressure 29.85 in
Visibility 7.0 miles
Clouds Few 5000 ft
Heat Index 73 °F
Dew Point 69 °F
Humidity 85%
Rainfall 0.00 in
Snow Depth Not available.
UV 0 out of 12
Pollen 9.60 out of 12
Air Quality Not available.
Flu Activity Not available.
METAR KOSH 030553Z 20007KT 7SM FEW050 22/20 A2990 RMK AO2 SLP108 T02220200 10256 20222 403060217 58011

10-Day Weather Forecast

×

Almanac

Astronomy

Sep. 03, 2015 Rise Set
Actual Time
Civil Twilight
Nautical Twilight
Astronomical Twilight
Moon
Length of Visible Light
Length of Day
Tomorrow will be .
, % of the Moon is Illuminated

Today's Extremes

State Highs State Lows

Community

WunderPhotos

Upload Photos

1,851,914 photos uploaded!

WunderBlogs® & News

Nearby

Air Quality

  Air Quality AQ Index Pollutant
Not available.

Snow Depth

Station Depth Elevation

Earthquake Activity

City Distance Mag. Time & Date
Minimum magnitude displayed is 2.5.

Coastal Water Temperatures

Place Temperature

Stations

Nearby Weather Stations

Station Location Temp. Windchill Dew Point Humidity Wind Precip. Elev Updated Type